createdAt,value
2023-02-22T00:01:47.373Z,7.68
2023-02-22T00:04:15.904Z,7.65
2023-02-22T00:06:42.346Z,7.68
2023-02-22T00:09:09.494Z,7.67
2023-02-22T00:11:35.929Z,7.65
2023-02-22T00:14:03.102Z,7.68
2023-02-22T00:16:31.031Z,7.66
2023-02-22T00:18:57.591Z,7.64
2023-02-22T00:21:23.995Z,7.65
2023-02-22T00:23:50.489Z,7.67
2023-02-22T00:26:20.259Z,7.66
2023-02-22T00:28:49.054Z,7.66
2023-02-22T00:31:16.232Z,7.63
2023-02-22T00:33:43.005Z,7.63
2023-02-22T00:36:11.773Z,7.63
2023-02-22T00:38:38.427Z,7.64
2023-02-22T00:41:05.552Z,7.61
2023-02-22T00:43:32.006Z,7.61
2023-02-22T00:45:58.756Z,7.59
2023-02-22T00:48:25.474Z,7.59
2023-02-22T00:50:55.401Z,7.60
2023-02-22T00:53:23.988Z,7.61
2023-02-22T00:55:51.415Z,7.61
2023-02-22T00:58:18.612Z,7.61
2023-02-22T01:00:45.802Z,7.58
2023-02-22T01:03:15.755Z,7.58
2023-02-22T01:05:43.007Z,7.57
2023-02-22T01:08:12.264Z,7.57
2023-02-22T01:10:39.496Z,7.59
2023-02-22T01:13:09.025Z,7.56
2023-02-22T01:15:37.323Z,7.54
2023-02-22T01:18:05.194Z,7.55
2023-02-22T01:20:32.406Z,7.55
2023-02-22T01:23:00.464Z,7.53
2023-02-22T01:25:30.746Z,7.54
2023-02-22T01:27:58.702Z,7.51
2023-02-22T01:30:30.822Z,7.50
2023-02-22T01:32:58.471Z,7.50
2023-02-22T01:35:31.372Z,7.49
2023-02-22T01:37:58.712Z,7.48
2023-02-22T01:40:29.633Z,7.47
2023-02-22T01:42:58.955Z,7.46
2023-02-22T01:45:32.818Z,7.47
2023-02-22T01:48:22.739Z,7.50
2023-02-22T01:51:10.611Z,7.46
2023-02-22T01:53:43.312Z,7.44
2023-02-22T01:56:10.741Z,7.44
2023-02-22T01:58:41.236Z,7.41
2023-02-22T02:01:09.423Z,7.40
2023-02-22T02:03:38.498Z,7.41
2023-02-22T02:06:11.816Z,7.39
2023-02-22T02:09:05.627Z,7.41
2023-02-22T02:11:32.713Z,7.40
2023-02-22T02:14:00.065Z,7.41
2023-02-22T02:16:36.697Z,7.41
2023-02-22T02:19:08.142Z,7.39
2023-02-22T02:22:19.481Z,7.40
2023-02-22T02:25:17.931Z,7.39
2023-02-22T02:28:04.997Z,7.39
2023-02-22T02:30:43.459Z,7.37
2023-02-22T02:33:22.300Z,7.37
2023-02-22T02:36:03.824Z,7.37
2023-02-22T02:38:32.970Z,7.39
2023-02-22T02:41:13.459Z,7.37
2023-02-22T02:43:53.490Z,7.35
2023-02-22T02:46:44.080Z,7.36
2023-02-22T02:49:15.098Z,7.35
2023-02-22T02:51:47.214Z,7.29
2023-02-22T02:54:15.052Z,7.26
2023-02-22T02:56:42.883Z,7.22
2023-02-22T02:59:44.972Z,7.18
2023-02-22T03:02:46.242Z,7.05
2023-02-22T03:05:31.847Z,7.00
2023-02-22T03:08:17.921Z,6.95
2023-02-22T03:10:58.026Z,6.83
2023-02-22T03:13:59.369Z,6.78
2023-02-22T03:16:56.884Z,6.74
2023-02-22T03:19:37.049Z,6.67
2023-02-22T03:22:27.815Z,6.74
2023-02-22T03:25:14.000Z,6.65
2023-02-22T03:27:46.343Z,6.60
2023-02-22T03:30:25.750Z,6.56
2023-02-22T03:33:23.236Z,6.55
2023-02-22T03:35:56.812Z,6.51
2023-02-22T03:38:26.659Z,6.45
2023-02-22T03:40:59.241Z,6.41
2023-02-22T03:43:34.559Z,6.36
2023-02-22T03:46:04.065Z,6.34
2023-02-22T03:48:54.323Z,6.29
2023-02-22T03:51:22.693Z,6.28
2023-02-22T03:53:54.420Z,6.29
2023-02-22T03:56:35.775Z,6.25
2023-02-22T03:59:05.628Z,6.20
2023-02-22T04:01:32.335Z,6.21
2023-02-22T04:04:00.343Z,6.16
2023-02-22T04:06:27.924Z,6.05
2023-02-22T04:08:56.198Z,6.00
2023-02-22T04:11:22.648Z,5.90
2023-02-22T04:13:49.629Z,5.87
2023-02-22T04:16:16.376Z,5.84
2023-02-22T04:18:43.123Z,5.81
2023-02-22T04:21:11.869Z,5.78
2023-02-22T04:23:42.890Z,5.78
2023-02-22T04:26:11.511Z,5.79
2023-02-22T04:28:38.512Z,5.75
2023-02-22T04:31:09.980Z,5.72
2023-02-22T04:33:37.364Z,5.70
2023-02-22T04:36:04.404Z,5.66
2023-02-22T04:38:33.686Z,5.65
2023-02-22T04:41:00.874Z,5.62
2023-02-22T04:43:27.723Z,5.61
2023-02-22T04:46:02.157Z,5.59
2023-02-22T04:48:28.906Z,5.64
2023-02-22T04:50:55.483Z,5.63
2023-02-22T04:53:23.331Z,5.63
2023-02-22T04:55:49.988Z,5.55
2023-02-22T04:58:17.240Z,5.56
2023-02-22T05:00:43.834Z,5.54
2023-02-22T05:03:10.346Z,5.49
2023-02-22T05:05:36.787Z,5.46
2023-02-22T05:08:03.246Z,5.48
2023-02-22T05:10:29.790Z,5.42
2023-02-22T05:12:56.680Z,5.39
2023-02-22T05:15:25.285Z,5.38
2023-02-22T05:17:53.379Z,5.37
2023-02-22T05:20:27.892Z,5.30
2023-02-22T05:22:55.552Z,5.25
2023-02-22T05:25:22.136Z,5.17
2023-02-22T05:28:00.892Z,5.12
2023-02-22T05:30:34.560Z,5.06
2023-02-22T05:33:01.900Z,4.97
2023-02-22T05:35:29.176Z,4.93
2023-02-22T05:37:56.452Z,4.90
2023-02-22T05:40:26.304Z,4.92
2023-02-22T05:42:53.571Z,4.97
2023-02-22T05:45:22.089Z,4.95
2023-02-22T05:47:49.973Z,5.03
2023-02-22T05:50:18.048Z,5.03
2023-02-22T05:52:44.425Z,5.06
2023-02-22T05:55:13.851Z,5.05
2023-02-22T05:57:40.422Z,5.10
2023-02-22T06:00:08.215Z,5.09
2023-02-22T06:02:40.459Z,5.15
2023-02-22T06:05:07.371Z,5.17
2023-02-22T06:07:34.364Z,5.31
2023-02-22T06:10:00.801Z,5.29
2023-02-22T06:12:27.961Z,5.30
2023-02-22T06:14:54.516Z,5.26
2023-02-22T06:17:20.940Z,5.20
2023-02-22T06:19:47.473Z,5.25
2023-02-22T06:22:18.691Z,5.24
2023-02-22T06:24:45.399Z,5.17
2023-02-22T06:27:11.845Z,5.31
2023-02-22T06:29:38.369Z,5.29
2023-02-22T06:32:05.347Z,5.26
2023-02-22T06:34:32.234Z,5.33
2023-02-22T06:37:00.055Z,5.39
2023-02-22T06:39:28.866Z,5.41
2023-02-22T06:41:57.821Z,5.40
2023-02-22T06:44:24.301Z,5.38
2023-02-22T06:46:51.682Z,5.38
2023-02-22T06:49:20.132Z,5.42
2023-02-22T06:51:47.430Z,5.47
2023-02-22T06:54:14.676Z,5.46
2023-02-22T06:56:41.058Z,5.49
2023-02-22T06:59:08.365Z,5.55
2023-02-22T07:01:35.023Z,5.56
2023-02-22T07:04:03.930Z,5.61
2023-02-22T07:06:30.462Z,5.57
2023-02-22T07:08:57.002Z,5.54
2023-02-22T07:11:23.468Z,5.54
2023-02-22T07:13:50.561Z,5.64
2023-02-22T07:16:17.070Z,5.72
2023-02-22T07:18:43.636Z,5.72
2023-02-22T07:21:10.676Z,5.77
2023-02-22T07:23:37.103Z,5.75
2023-02-22T07:26:05.443Z,5.75
2023-02-22T07:28:32.040Z,5.85
2023-02-22T07:30:59.122Z,5.94
2023-02-22T07:33:26.891Z,6.02
2023-02-22T07:35:53.653Z,6.16
2023-02-22T07:38:20.951Z,6.21
2023-02-22T07:40:47.672Z,6.40
2023-02-22T07:43:20.360Z,6.43
2023-02-22T07:45:48.756Z,6.53
2023-02-22T07:48:17.627Z,6.58
2023-02-22T07:50:44.547Z,6.74
2023-02-22T07:53:18.052Z,6.80
2023-02-22T07:55:44.584Z,6.83
2023-02-22T07:58:15.228Z,6.81
2023-02-22T08:00:43.958Z,6.85
2023-02-22T08:03:12.981Z,6.90
2023-02-22T08:05:44.784Z,6.98
2023-02-22T08:08:11.332Z,7.08
2023-02-22T08:10:37.957Z,7.17
2023-02-22T08:13:05.709Z,7.24
2023-02-22T08:15:34.867Z,7.35
2023-02-22T08:18:03.882Z,7.48
2023-02-22T08:20:31.196Z,7.47
2023-02-22T08:22:58.307Z,7.52
2023-02-22T08:25:27.147Z,7.58
2023-02-22T08:27:59.923Z,7.59
2023-02-22T08:30:28.026Z,7.66
2023-02-22T08:32:54.846Z,7.69
2023-02-22T08:35:22.394Z,7.84
2023-02-22T08:37:54.932Z,7.88
2023-02-22T08:40:24.065Z,7.90
2023-02-22T08:42:50.748Z,7.89
2023-02-22T08:45:18.017Z,7.93
2023-02-22T08:47:44.610Z,7.96
2023-02-22T08:50:21.971Z,8.02
2023-02-22T08:52:51.347Z,8.08
2023-02-22T08:55:25.127Z,8.14
2023-02-22T08:57:51.828Z,8.30
2023-02-22T09:00:20.644Z,8.32
2023-02-22T09:02:47.089Z,8.34
2023-02-22T09:05:13.560Z,8.37
2023-02-22T09:07:44.389Z,8.42
2023-02-22T09:10:15.431Z,8.47
2023-02-22T09:12:42.664Z,8.58
2023-02-22T09:15:09.699Z,8.61
2023-02-22T09:17:37.379Z,8.66
2023-02-22T09:20:05.969Z,8.79
2023-02-22T09:22:32.418Z,8.90
2023-02-22T09:25:02.623Z,8.93
2023-02-22T09:27:34.484Z,8.94
2023-02-22T09:30:01.027Z,8.96
2023-02-22T09:32:28.138Z,8.99
2023-02-22T09:34:55.640Z,9.03
2023-02-22T09:37:22.567Z,9.09
2023-02-22T09:39:49.213Z,9.17
2023-02-22T09:42:42.389Z,9.14
2023-02-22T09:45:22.660Z,9.21
2023-02-22T09:48:20.937Z,9.32
2023-02-22T09:50:52.380Z,9.42
2023-02-22T09:53:30.849Z,9.35
2023-02-22T09:56:06.957Z,9.46
2023-02-22T09:58:40.223Z,9.51
2023-02-22T10:01:29.333Z,9.52
2023-02-22T10:04:19.088Z,9.69
2023-02-22T10:07:08.790Z,9.74
2023-02-22T10:09:42.473Z,9.77
2023-02-22T10:12:34.003Z,9.87
2023-02-22T10:15:34.617Z,10.14
2023-02-22T10:18:28.686Z,10.29
2023-02-22T10:21:21.810Z,10.22
2023-02-22T10:24:10.479Z,10.17
2023-02-22T10:26:41.923Z,10.33
2023-02-22T10:29:25.319Z,10.48
2023-02-22T10:31:57.587Z,10.35
2023-02-22T10:34:28.192Z,10.38
2023-02-22T10:37:03.350Z,10.45
2023-02-22T10:39:39.607Z,10.49
2023-02-22T10:42:09.116Z,10.56
2023-02-22T10:44:37.597Z,10.79
2023-02-22T10:47:07.632Z,10.80
2023-02-22T10:49:43.943Z,10.91
2023-02-22T10:52:31.047Z,10.84
2023-02-22T10:55:14.007Z,10.87
2023-02-22T10:57:44.217Z,10.90
2023-02-22T11:00:31.138Z,10.93
2023-02-22T11:03:03.648Z,10.96
2023-02-22T11:05:30.333Z,10.93
2023-02-22T11:08:15.581Z,11.09
2023-02-22T11:10:43.333Z,11.15
2023-02-22T11:13:31.035Z,11.17
2023-02-22T11:16:17.028Z,11.29
2023-02-22T11:18:46.968Z,11.35
2023-02-22T11:21:22.687Z,11.30
2023-02-22T11:23:50.352Z,11.37
2023-02-22T11:26:20.560Z,11.46
2023-02-22T11:28:50.580Z,11.58
2023-02-22T11:31:24.127Z,11.58
2023-02-22T11:36:40.819Z,11.81
2023-02-22T11:39:21.617Z,11.99
2023-02-22T11:41:51.069Z,11.87
2023-02-22T11:44:30.639Z,11.84
2023-02-22T11:47:06.727Z,11.96
2023-02-22T11:49:36.741Z,12.02
2023-02-22T11:52:10.381Z,12.20
2023-02-22T11:55:00.658Z,12.23
2023-02-22T11:57:46.770Z,12.39
2023-02-22T12:00:35.991Z,12.40
2023-02-22T12:03:28.934Z,12.39
2023-02-22T12:06:07.006Z,12.45
2023-02-22T12:08:43.168Z,12.31
2023-02-22T12:11:39.776Z,12.40
2023-02-22T12:14:38.780Z,12.54
2023-02-22T12:17:23.463Z,12.33
2023-02-22T12:19:54.783Z,12.45
2023-02-22T12:22:27.270Z,12.28
2023-02-22T12:25:20.163Z,12.33
2023-02-22T12:27:51.947Z,12.50
2023-02-22T12:30:28.858Z,12.53
2023-02-22T12:32:59.615Z,12.47
2023-02-22T12:35:35.965Z,12.39
2023-02-22T12:38:13.479Z,12.27
2023-02-22T12:40:54.415Z,12.32
2023-02-22T12:43:28.585Z,12.33
2023-02-22T12:46:13.876Z,12.37
2023-02-22T12:48:45.880Z,12.59
2023-02-22T12:51:15.903Z,12.59
2023-02-22T12:53:49.405Z,12.62
2023-02-22T12:56:45.307Z,12.64
2023-02-22T12:59:35.097Z,12.62
2023-02-22T13:02:15.327Z,12.73
2023-02-22T13:04:41.822Z,12.73
2023-02-22T13:07:17.483Z,12.91
2023-02-22T13:10:03.003Z,12.94
2023-02-22T13:12:52.635Z,13.04
2023-02-22T13:15:28.114Z,13.03
2023-02-22T13:18:01.486Z,13.06
2023-02-22T13:20:41.338Z,12.95
2023-02-22T13:23:25.874Z,13.02
2023-02-22T13:26:10.794Z,13.07
2023-02-22T13:28:44.641Z,13.13
2023-02-22T13:31:30.113Z,13.13
2023-02-22T13:34:02.820Z,13.11
2023-02-22T13:37:02.625Z,13.18
2023-02-22T13:39:39.241Z,13.08
2023-02-22T13:42:49.029Z,13.06
2023-02-22T13:45:46.714Z,13.25
2023-02-22T13:48:24.412Z,13.18
2023-02-22T13:51:06.584Z,13.25
2023-02-22T13:53:43.861Z,13.32
2023-02-22T13:56:11.720Z,13.18
2023-02-22T13:58:58.081Z,13.30
2023-02-22T14:01:43.254Z,13.26
2023-02-22T14:04:30.000Z,13.29
2023-02-22T14:07:22.515Z,13.21
2023-02-22T14:09:50.587Z,13.35
2023-02-22T14:12:29.223Z,13.30
2023-02-22T14:15:28.737Z,13.31
2023-02-22T14:18:07.281Z,13.30
2023-02-22T14:20:36.562Z,13.43
2023-02-22T14:23:30.064Z,13.35
2023-02-22T14:26:09.121Z,13.37
2023-02-22T14:28:41.285Z,13.46
2023-02-22T14:31:29.467Z,13.41
2023-02-22T14:34:08.294Z,13.43
2023-02-22T14:36:56.164Z,13.27
2023-02-22T14:39:38.238Z,13.11
2023-02-22T14:42:18.015Z,13.24
2023-02-22T14:44:56.568Z,13.15
2023-02-22T14:47:29.589Z,13.23
2023-02-22T14:50:08.823Z,13.22
2023-02-22T14:52:38.145Z,13.23
2023-02-22T14:55:19.869Z,13.08
2023-02-22T14:57:59.114Z,13.13
2023-02-22T15:00:59.860Z,13.12
2023-02-22T15:03:37.809Z,12.98
2023-02-22T15:06:15.397Z,13.03
2023-02-22T15:08:48.531Z,13.00
2023-02-22T15:11:32.405Z,12.98
2023-02-22T15:14:01.109Z,13.03
2023-02-22T15:16:31.482Z,13.07
2023-02-22T15:19:00.935Z,12.85
2023-02-22T15:21:29.788Z,13.06
2023-02-22T15:23:59.880Z,12.80
2023-02-22T15:26:51.867Z,12.85
2023-02-22T15:29:35.186Z,12.98
2023-02-22T15:32:17.855Z,12.84
2023-02-22T15:34:44.382Z,12.84
2023-02-22T15:37:25.252Z,12.89
2023-02-22T15:39:59.752Z,12.90
2023-02-22T15:42:29.407Z,12.84
2023-02-22T15:44:56.655Z,12.64
2023-02-22T15:47:27.492Z,12.50
2023-02-22T15:50:26.954Z,12.36
2023-02-22T15:52:59.632Z,12.36
2023-02-22T15:55:38.183Z,12.27
2023-02-22T15:58:31.207Z,12.15
2023-02-22T16:01:04.033Z,12.05
2023-02-22T16:03:47.836Z,12.14
2023-02-22T16:06:38.522Z,12.14
2023-02-22T16:09:11.572Z,12.09
2023-02-22T16:11:43.719Z,12.21
2023-02-22T16:14:30.703Z,12.25
2023-02-22T16:17:28.738Z,12.04
2023-02-22T16:19:55.683Z,11.96
2023-02-22T16:22:33.872Z,11.98
2023-02-22T16:25:16.476Z,11.84
2023-02-22T16:27:48.471Z,11.71
2023-02-22T16:30:24.293Z,11.70
2023-02-22T16:32:52.603Z,11.66
2023-02-22T16:35:19.191Z,11.56
2023-02-22T16:37:46.707Z,11.63
2023-02-22T16:40:22.524Z,11.69
2023-02-22T16:42:50.233Z,11.52
2023-02-22T16:45:17.813Z,11.42
2023-02-22T16:47:45.209Z,11.35
2023-02-22T16:50:12.688Z,11.26
2023-02-22T16:52:40.405Z,11.17
2023-02-22T16:55:11.882Z,11.16
2023-02-22T16:57:39.522Z,11.13
2023-02-22T17:00:37.322Z,11.05
2023-02-22T17:03:05.405Z,10.92
2023-02-22T17:05:36.023Z,10.83
2023-02-22T17:08:05.310Z,10.75
2023-02-22T17:10:32.028Z,10.72
2023-02-22T17:13:05.222Z,10.67
2023-02-22T17:15:40.277Z,10.62
2023-02-22T17:18:16.177Z,10.54
2023-02-22T17:20:45.651Z,10.49
2023-02-22T17:23:12.951Z,10.44
2023-02-22T17:25:59.088Z,10.38
2023-02-22T17:28:26.801Z,10.35
2023-02-22T17:31:00.621Z,10.33
2023-02-22T17:33:29.861Z,10.28
2023-02-22T17:35:59.008Z,10.28
2023-02-22T17:38:28.891Z,10.32
2023-02-22T17:40:56.264Z,10.30
2023-02-22T17:43:23.911Z,10.27
2023-02-22T17:45:50.932Z,10.21
2023-02-22T17:48:18.467Z,10.22
2023-02-22T17:50:46.681Z,10.27
2023-02-22T17:53:13.635Z,10.23
2023-02-22T17:55:42.000Z,10.18
2023-02-22T17:58:14.416Z,10.12
2023-02-22T18:00:44.623Z,10.04
2023-02-22T18:03:21.079Z,9.92
2023-02-22T18:05:50.347Z,9.80
2023-02-22T18:08:16.976Z,9.72
2023-02-22T18:10:45.011Z,9.64
2023-02-22T18:13:19.608Z,9.55
2023-02-22T18:15:47.031Z,9.48
2023-02-22T18:18:17.651Z,9.42
2023-02-22T18:20:46.685Z,9.32
2023-02-22T18:23:16.079Z,9.26
2023-02-22T18:26:03.739Z,9.21
2023-02-22T18:28:35.486Z,9.16
2023-02-22T18:31:10.186Z,9.12
2023-02-22T18:33:36.780Z,9.09
2023-02-22T18:36:04.461Z,9.06
2023-02-22T18:38:31.171Z,9.03
2023-02-22T18:41:02.868Z,8.99
2023-02-22T18:43:31.688Z,8.93
2023-02-22T18:46:20.004Z,8.85
2023-02-22T18:48:48.473Z,8.83
2023-02-22T18:51:17.625Z,8.78
2023-02-22T18:53:47.579Z,8.72
2023-02-22T18:56:21.549Z,8.65
2023-02-22T18:58:52.610Z,8.65
2023-02-22T19:01:19.332Z,8.60
2023-02-22T19:03:49.598Z,8.57
2023-02-22T19:06:17.093Z,8.55
2023-02-22T19:08:45.717Z,8.59
2023-02-22T19:11:21.785Z,8.59
2023-02-22T19:13:53.744Z,8.57
2023-02-22T19:16:22.289Z,8.58
2023-02-22T19:18:50.759Z,8.55
2023-02-22T19:21:17.735Z,8.55
2023-02-22T19:23:48.210Z,8.53
2023-02-22T19:26:21.061Z,8.50
2023-02-22T19:28:48.729Z,8.48
2023-02-22T19:31:18.580Z,8.50
2023-02-22T19:33:47.477Z,8.47
2023-02-22T19:36:14.702Z,8.44
2023-02-22T19:38:41.678Z,8.39
2023-02-22T19:41:27.192Z,8.38
2023-02-22T19:43:55.936Z,8.32
2023-02-22T19:46:24.711Z,8.28
2023-02-22T19:48:52.525Z,8.29
2023-02-22T19:51:20.929Z,8.30
2023-02-22T19:53:48.049Z,8.32
2023-02-22T19:56:17.754Z,8.33
2023-02-22T19:58:50.751Z,8.38
2023-02-22T20:01:23.722Z,8.35
2023-02-22T20:03:54.770Z,8.35
2023-02-22T20:06:23.031Z,8.34
2023-02-22T20:08:50.935Z,8.32
2023-02-22T20:11:17.596Z,8.31
2023-02-22T20:13:45.338Z,8.26
2023-02-22T20:16:15.915Z,8.28
2023-02-22T20:18:43.996Z,8.27
2023-02-22T20:21:13.924Z,8.32
2023-02-22T20:23:44.102Z,8.26
2023-02-22T20:26:20.600Z,8.23
2023-02-22T20:28:48.436Z,8.19
2023-02-22T20:31:16.791Z,8.16
2023-02-22T20:33:45.732Z,8.14
2023-02-22T20:36:15.150Z,8.10
2023-02-22T20:38:41.866Z,8.06
2023-02-22T20:41:13.384Z,8.02
2023-02-22T20:43:40.032Z,7.98
2023-02-22T20:46:07.264Z,7.95
2023-02-22T20:48:34.233Z,7.97
2023-02-22T20:51:09.251Z,7.94
2023-02-22T20:53:39.238Z,7.93
2023-02-22T20:56:06.721Z,7.88
2023-02-22T20:58:33.185Z,7.82
2023-02-22T21:01:05.143Z,7.79
2023-02-22T21:03:35.626Z,7.78
2023-02-22T21:06:05.124Z,7.73
2023-02-22T21:08:32.865Z,7.69
2023-02-22T21:11:00.209Z,7.65
2023-02-22T21:13:27.637Z,7.67
2023-02-22T21:15:55.196Z,7.59
2023-02-22T21:18:24.711Z,7.52
2023-02-22T21:20:52.117Z,7.41
2023-02-22T21:23:18.535Z,7.38
2023-02-22T21:25:54.886Z,7.30
2023-02-22T21:28:21.400Z,7.29
2023-02-22T21:30:48.235Z,7.28
2023-02-22T21:33:17.721Z,7.33
2023-02-22T21:35:46.908Z,7.31
2023-02-22T21:38:17.760Z,7.30
2023-02-22T21:40:47.172Z,7.26
2023-02-22T21:43:13.641Z,7.26
2023-02-22T21:45:40.053Z,7.26
2023-02-22T21:48:06.655Z,7.26
2023-02-22T21:50:37.598Z,7.20
2023-02-22T21:53:05.505Z,7.17
2023-02-22T21:55:33.782Z,7.15
2023-02-22T21:58:00.361Z,7.11
2023-02-22T22:00:31.176Z,7.07
2023-02-22T22:03:12.268Z,7.02
2023-02-22T22:05:39.532Z,7.00
2023-02-22T22:08:13.148Z,7.01
2023-02-22T22:10:39.576Z,6.96
2023-02-22T22:13:08.963Z,6.95
2023-02-22T22:15:37.243Z,6.93
2023-02-22T22:18:06.522Z,6.91
2023-02-22T22:20:33.243Z,6.91
2023-02-22T22:23:00.063Z,6.89
2023-02-22T22:25:28.353Z,6.89
2023-02-22T22:27:56.101Z,6.85
2023-02-22T22:30:22.890Z,6.81
2023-02-22T22:32:49.464Z,6.81
2023-02-22T22:35:15.983Z,6.78
2023-02-22T22:37:43.028Z,6.78
2023-02-22T22:40:15.531Z,6.78
2023-02-22T22:42:42.600Z,6.80
2023-02-22T22:45:12.991Z,6.81
2023-02-22T22:47:45.881Z,6.82
2023-02-22T22:50:14.791Z,6.81
2023-02-22T22:52:41.713Z,6.79
2023-02-22T22:55:11.913Z,6.80
2023-02-22T22:57:39.806Z,6.78
2023-02-22T23:00:26.560Z,6.74
2023-02-22T23:02:56.278Z,6.74
2023-02-22T23:05:28.902Z,6.74
2023-02-22T23:07:56.472Z,6.70
2023-02-22T23:10:27.112Z,6.65
2023-02-22T23:13:21.140Z,6.59
2023-02-22T23:16:12.573Z,6.57
2023-02-22T23:18:43.001Z,6.44
2023-02-22T23:21:10.258Z,6.34
2023-02-22T23:23:37.961Z,6.34
2023-02-22T23:26:20.575Z,6.36
2023-02-22T23:28:48.486Z,6.33
2023-02-22T23:31:17.793Z,6.34
2023-02-22T23:33:48.173Z,6.37
2023-02-22T23:36:16.490Z,6.43
2023-02-22T23:38:43.473Z,6.45
2023-02-22T23:41:18.911Z,6.52
2023-02-22T23:43:45.864Z,6.64
2023-02-22T23:46:18.241Z,6.73
2023-02-22T23:48:52.196Z,6.64
2023-02-22T23:51:25.350Z,6.56
2023-02-22T23:53:55.658Z,6.67
2023-02-22T23:56:27.932Z,6.62
2023-02-22T23:58:57.109Z,6.63
